Time;durP1;ratioP1;P1;durP2;ratioP2;P2;SDS_P1;SDS_P2;PMS_P1;PMS_P2;Temp;Humidity;BMP_temperature;BMP_pressure;BME280_temperature;BME280_humidity;BME280_pressure;Samples;Min_cycle;Max_cycle;Signal;HPM_P1;HPM_P2
2022/07/22 00:01:49;;;;;;;14.52;12.82;;;;;;;21.69;59.66;97651.34;4924324;28;20203;-77
2022/07/22 00:04:14;;;;;;;13.07;11.02;;;;;;;21.60;59.88;97646.00;4890851;28;20201;-77
2022/07/22 00:06:40;;;;;;;11.77;10.10;;;;;;;21.58;60.52;97639.47;4924380;28;20717;-77
2022/07/22 00:09:05;;;;;;;10.63;9.50;;;;;;;21.63;60.92;97639.31;4909891;28;20291;-77
2022/07/22 00:11:31;;;;;;;12.20;10.73;;;;;;;21.55;60.53;97632.13;4925321;28;20226;-77
2022/07/22 00:13:56;;;;;;;11.50;10.30;;;;;;;21.55;60.53;97632.88;4909574;28;20336;-77
2022/07/22 00:16:22;;;;;;;11.02;9.90;;;;;;;21.56;59.95;97626.50;4924509;28;20174;-77
2022/07/22 00:18:47;;;;;;;11.02;9.93;;;;;;;21.54;60.10;97635.84;4926292;28;20301;-77
2022/07/22 00:21:12;;;;;;;10.90;9.82;;;;;;;21.49;60.79;97629.59;4910860;28;20207;-77
2022/07/22 00:23:38;;;;;;;10.80;9.70;;;;;;;21.45;59.99;97631.25;4928642;28;20552;-77
2022/07/22 00:26:03;;;;;;;10.63;9.52;;;;;;;21.45;60.56;97631.25;4925155;28;20744;-76
2022/07/22 00:28:29;;;;;;;10.63;9.63;;;;;;;21.42;60.44;97629.22;4897273;28;20536;-77
2022/07/22 00:30:54;;;;;;;10.95;9.82;;;;;;;21.44;60.31;97632.34;4910648;28;20204;-77
2022/07/22 00:33:20;;;;;;;11.43;9.40;;;;;;;21.47;60.57;97634.41;4910696;28;20718;-77
2022/07/22 00:35:45;;;;;;;10.10;9.05;;;;;;;21.49;61.17;97637.53;4897528;28;20414;-77
2022/07/22 00:38:10;;;;;;;10.52;9.40;;;;;;;21.42;61.05;97631.88;4926442;28;20174;-76
2022/07/22 00:40:36;;;;;;;11.85;9.73;;;;;;;21.40;61.05;97634.03;4910512;28;20635;-77
2022/07/22 00:43:01;;;;;;;10.77;9.68;;;;;;;21.37;60.78;97624.06;4926856;28;20239;-77
2022/07/22 00:45:27;;;;;;;11.00;9.60;;;;;;;21.36;61.10;97629.66;4926690;28;20283;-77
2022/07/22 00:47:52;;;;;;;10.85;9.73;;;;;;;21.35;61.23;97618.25;4893135;28;20196;-77
2022/07/22 00:50:19;;;;;;;9.88;8.88;;;;;;;21.31;60.67;97618.09;4925927;28;20195;-77
2022/07/22 00:52:45;;;;;;;10.25;9.15;;;;;;;21.35;61.00;97620.91;4910489;28;20251;-77
2022/07/22 00:55:11;;;;;;;10.98;9.88;;;;;;;21.31;61.07;97623.38;4892127;28;20277;-77
2022/07/22 00:57:36;;;;;;;11.95;10.68;;;;;;;21.26;61.30;97612.13;4923802;28;20243;-77
2022/07/22 01:00:04;;;;;;;10.30;9.30;;;;;;;21.20;61.22;97613.34;4924399;28;20199;-77
2022/07/22 01:02:29;;;;;;;11.65;10.35;;;;;;;21.19;61.29;97617.09;4924555;28;20265;-76
2022/07/22 01:04:54;;;;;;;11.05;10.05;;;;;;;21.17;61.31;97613.97;4925320;28;20275;-77
2022/07/22 01:07:20;;;;;;;10.57;9.57;;;;;;;21.13;61.44;97613.78;4925926;28;20286;-77
2022/07/22 01:09:45;;;;;;;10.95;9.77;;;;;;;21.06;61.63;97608.91;4881171;28;20290;-77
2022/07/22 01:12:12;;;;;;;10.77;9.68;;;;;;;21.06;61.21;97611.56;4926767;28;20255;-77
2022/07/22 01:14:37;;;;;;;10.35;9.35;;;;;;;20.98;61.52;97612.28;4910178;28;20177;-77
2022/07/22 01:17:03;;;;;;;11.27;10.18;;;;;;;20.94;61.72;97616.63;4925910;28;20260;-77
2022/07/22 01:19:29;;;;;;;12.30;11.00;;;;;;;20.84;62.00;97611.56;4908818;28;20208;-77
2022/07/22 01:21:54;;;;;;;10.88;9.70;;;;;;;20.87;62.02;97617.03;4909809;28;20280;-77
2022/07/22 01:24:20;;;;;;;11.32;10.23;;;;;;;20.82;61.95;97619.00;4927861;28;20253;-77
2022/07/22 01:26:46;;;;;;;11.10;10.00;;;;;;;20.80;61.93;97626.47;4925567;28;20188;-77
2022/07/22 01:29:11;;;;;;;11.02;9.70;;;;;;;20.69;61.48;97621.41;4909767;28;20193;-77
2022/07/22 01:31:36;;;;;;;12.63;10.50;;;;;;;20.63;61.53;97613.88;4926166;28;20075;-77
2022/07/22 01:34:02;;;;;;;11.00;9.90;;;;;;;20.57;62.56;97618.47;4926216;28;20189;-77
2022/07/22 01:36:28;;;;;;;11.43;10.10;;;;;;;20.59;62.88;97621.59;4925951;28;20254;-77
2022/07/22 01:38:53;;;;;;;12.05;10.50;;;;;;;20.56;62.88;97616.91;4922503;28;20738;-77
2022/07/22 01:41:19;;;;;;;11.55;9.60;;;;;;;20.53;62.85;97612.22;4909934;28;20650;-77
2022/07/22 01:43:44;;;;;;;11.82;10.48;;;;;;;20.52;63.18;97621.25;4905290;28;20205;-77
2022/07/22 01:46:10;;;;;;;14.38;10.25;;;;;;;20.47;62.82;97616.06;4926370;28;20512;-76
2022/07/22 01:48:36;;;;;;;11.45;10.35;;;;;;;20.46;62.61;97619.78;4927247;28;20206;-76
2022/07/22 01:51:01;;;;;;;12.32;10.07;;;;;;;20.37;62.90;97620.50;4909667;28;20257;-77
2022/07/22 01:53:27;;;;;;;11.50;10.15;;;;;;;20.37;62.79;97620.50;4909897;28;20196;-76
2022/07/22 01:55:52;;;;;;;10.40;9.25;;;;;;;20.30;63.02;97621.97;4909517;28;20615;-77
2022/07/22 01:58:18;;;;;;;13.25;9.98;;;;;;;20.33;63.13;97624.81;4925252;28;20743;-77
2022/07/22 02:00:43;;;;;;;11.57;9.55;;;;;;;20.32;62.55;97628.53;4928833;28;20201;-77
2022/07/22 02:03:10;;;;;;;10.48;9.48;;;;;;;20.32;63.21;97625.91;4929029;28;20626;-77
2022/07/22 02:05:36;;;;;;;11.40;10.23;;;;;;;20.27;62.56;97620.72;4929814;28;20327;-77
2022/07/22 02:08:07;;;;;;;10.88;9.77;;;;;;;20.20;63.24;97618.47;4929313;28;20767;-77
2022/07/22 02:10:33;;;;;;;10.80;8.52;;;;;;;20.30;63.02;97629.91;4929118;28;20642;-77
2022/07/22 02:12:59;;;;;;;11.95;9.88;;;;;;;20.27;63.13;97619.91;4913098;28;20222;-77
2022/07/22 02:15:25;;;;;;;11.48;10.27;;;;;;;20.21;63.63;97627.94;4913004;28;20322;-76
2022/07/22 02:17:50;;;;;;;12.88;10.60;;;;;;;20.16;63.82;97627.28;4928377;28;20712;-77
2022/07/22 02:20:16;;;;;;;11.63;10.43;;;;;;;20.09;63.57;97626.91;4928975;28;20367;-77
2022/07/22 02:22:41;;;;;;;11.23;10.13;;;;;;;20.04;63.57;97621.72;4931199;28;20281;-77
2022/07/22 02:25:07;;;;;;;11.23;9.70;;;;;;;19.99;63.47;97620.72;4912686;28;20633;-77
2022/07/22 02:27:32;;;;;;;11.68;10.32;;;;;;;19.95;63.59;97614.47;4912747;28;20760;-76
2022/07/22 02:29:58;;;;;;;12.15;10.05;;;;;;;19.94;63.89;97627.97;4883727;28;20268;-77
2022/07/22 02:32:23;;;;;;;12.20;10.88;;;;;;;19.89;64.22;97615.63;4913292;28;20564;-77
2022/07/22 02:34:49;;;;;;;10.38;9.38;;;;;;;19.90;63.70;97617.22;4896853;28;20295;-77
2022/07/22 02:37:14;;;;;;;12.70;10.82;;;;;;;19.88;64.18;97622.00;4928764;28;20657;-76
2022/07/22 02:39:40;;;;;;;11.68;10.25;;;;;;;19.89;64.88;97618.28;4928780;28;20188;-77
2022/07/22 02:42:05;;;;;;;11.25;9.85;;;;;;;19.91;64.50;97610.84;4928398;28;20740;-77
2022/07/22 02:44:30;;;;;;;13.63;10.18;;;;;;;19.91;64.66;97607.41;4923493;28;20188;-77
2022/07/22 02:46:56;;;;;;;12.27;10.10;;;;;;;19.89;64.57;97605.06;4928169;28;20289;-76
2022/07/22 02:49:21;;;;;;;10.13;9.13;;;;;;;19.95;64.11;97609.19;4928011;28;20289;-77
2022/07/22 02:51:47;;;;;;;10.80;9.57;;;;;;;19.88;64.62;97600.88;4912618;28;20251;-77
2022/07/22 02:54:12;;;;;;;13.65;11.35;;;;;;;19.90;64.71;97601.34;4912054;28;20416;-77
2022/07/22 02:56:38;;;;;;;12.45;10.38;;;;;;;19.89;64.51;97599.78;4928347;28;20257;-76
2022/07/22 02:59:03;;;;;;;11.02;9.88;;;;;;;19.88;64.44;97595.59;4928326;28;20166;-77
2022/07/22 03:01:28;;;;;;;11.43;10.18;;;;;;;19.90;64.16;97597.94;4928595;28;20276;-77
2022/07/22 03:03:54;;;;;;;11.23;9.95;;;;;;;19.88;64.25;97603.50;4928294;28;20260;-77
2022/07/22 03:06:21;;;;;;;11.23;9.73;;;;;;;19.86;64.24;97605.66;4896017;28;20279;-77
2022/07/22 03:08:46;;;;;;;11.48;10.20;;;;;;;19.80;64.61;97601.53;4912331;28;20239;-77
2022/07/22 03:11:12;;;;;;;11.48;10.07;;;;;;;19.78;64.46;97603.72;4911468;28;20264;-77
2022/07/22 03:13:37;;;;;;;12.77;11.05;;;;;;;19.76;64.87;97600.56;4928224;28;20189;-77
2022/07/22 03:16:03;;;;;;;12.75;10.80;;;;;;;19.78;64.53;97601.06;4927786;28;20210;-76
2022/07/22 03:18:28;;;;;;;11.45;9.98;;;;;;;19.75;64.35;97606.94;4911212;28;20287;-76
2022/07/22 03:20:53;;;;;;;14.05;10.52;;;;;;;19.76;64.27;97605.88;4911616;28;20250;-77
2022/07/22 03:23:19;;;;;;;12.50;10.45;;;;;;;19.70;64.69;97607.78;4911890;28;20279;-77
2022/07/22 03:25:44;;;;;;;11.77;10.35;;;;;;;19.67;64.48;97612.84;4911940;28;20252;-77
2022/07/22 03:28:10;;;;;;;11.07;9.88;;;;;;;19.75;64.59;97623.56;4927215;28;20189;-77
2022/07/22 03:30:35;;;;;;;10.68;8.80;;;;;;;19.79;64.50;97623.75;4928122;28;20380;-77
2022/07/22 03:33:01;;;;;;;12.32;10.02;;;;;;;19.77;64.00;97617.97;4912261;28;20634;-77
2022/07/22 03:35:26;;;;;;;10.32;9.32;;;;;;;19.75;64.00;97612.22;4895769;28;20570;-77
2022/07/22 03:37:51;;;;;;;12.52;9.85;;;;;;;19.73;64.06;97612.47;4927817;28;20654;-77
2022/07/22 03:40:17;;;;;;;9.85;8.85;;;;;;;19.68;64.39;97614.44;4929936;28;20079;-77
2022/07/22 03:42:42;;;;;;;12.50;10.07;;;;;;;19.60;64.27;97603.47;4911738;28;20294;-77
2022/07/22 03:45:09;;;;;;;13.80;11.27;;;;;;;19.55;64.64;97611.50;4890552;28;20192;-76
2022/07/22 03:47:35;;;;;;;12.40;11.10;;;;;;;19.47;65.39;97604.25;4895029;28;20774;-77
2022/07/22 03:50:01;;;;;;;11.18;9.98;;;;;;;19.42;65.30;97609.59;4927307;28;20282;-77
2022/07/22 03:52:27;;;;;;;12.10;10.63;;;;;;;19.41;65.42;97616.72;4927777;28;20217;-77
2022/07/22 03:54:53;;;;;;;11.98;10.63;;;;;;;19.36;65.23;97608.91;4925387;28;20152;-76
2022/07/22 03:57:19;;;;;;;12.20;9.88;;;;;;;19.32;65.72;97601.88;4895306;28;20282;-77
2022/07/22 03:59:44;;;;;;;13.23;11.10;;;;;;;19.33;65.83;97614.78;4927335;28;20290;-77
2022/07/22 04:02:10;;;;;;;12.18;10.95;;;;;;;19.35;65.46;97611.84;4910915;28;20677;-77
2022/07/22 04:04:35;;;;;;;14.20;10.80;;;;;;;19.37;65.38;97610.47;4927322;28;20649;-76
2022/07/22 04:07:01;;;;;;;12.57;10.77;;;;;;;19.38;65.46;97612.06;4910624;28;20320;-76
2022/07/22 04:09:26;;;;;;;13.48;10.93;;;;;;;19.39;65.28;97604.91;4911160;28;20217;-77
2022/07/22 04:11:52;;;;;;;12.52;10.35;;;;;;;19.43;65.59;97611.97;4928941;28;20219;-76
2022/07/22 04:14:19;;;;;;;11.52;10.25;;;;;;;19.47;65.26;97614.81;4927123;28;20558;-77
2022/07/22 04:16:44;;;;;;;12.68;10.45;;;;;;;19.48;65.20;97613.72;4926610;28;20204;-77
2022/07/22 04:19:10;;;;;;;15.13;11.40;;;;;;;19.46;65.50;97614.00;4927291;28;20681;-77
2022/07/22 04:21:36;;;;;;;14.35;10.63;;;;;;;19.53;65.48;97602.28;4927110;28;20207;-77
2022/07/22 04:24:01;;;;;;;14.27;11.13;;;;;;;19.58;65.34;97600.31;4909877;28;20284;-77
2022/07/22 04:26:27;;;;;;;13.10;10.63;;;;;;;19.61;65.51;97597.09;4910584;28;20255;-77
2022/07/22 04:28:52;;;;;;;16.40;10.40;;;;;;;19.68;65.25;97595.94;4926875;28;20292;-77
2022/07/22 04:31:18;;;;;;;13.88;10.57;;;;;;;19.68;65.62;97599.34;4910972;28;20379;-77
2022/07/22 04:33:43;;;;;;;12.30;10.90;;;;;;;19.76;65.30;97600.56;4910569;28;20670;-77
2022/07/22 04:36:08;;;;;;;15.15;11.70;;;;;;;19.81;65.07;97603.13;4926168;28;20192;-77
2022/07/22 04:38:34;;;;;;;13.18;10.48;;;;;;;19.85;65.03;97606.72;4927157;28;20673;-77
2022/07/22 04:40:59;;;;;;;12.45;10.73;;;;;;;19.91;64.99;97605.56;4910176;28;20208;-77
2022/07/22 04:43:25;;;;;;;11.68;10.48;;;;;;;19.98;65.00;97607.78;4908269;28;20181;-77
2022/07/22 04:45:50;;;;;;;15.32;11.35;;;;;;;20.03;64.85;97610.34;4940054;28;20189;-77
2022/07/22 04:48:17;;;;;;;12.95;10.05;;;;;;;19.98;64.74;97611.25;4925762;28;20534;-77
2022/07/22 04:50:42;;;;;;;12.00;9.95;;;;;;;19.99;64.61;97602.22;4910332;28;20223;-77
2022/07/22 04:53:07;;;;;;;13.05;10.48;;;;;;;20.00;64.59;97609.06;4910605;28;20290;-77
2022/07/22 04:55:33;;;;;;;12.30;10.57;;;;;;;19.93;65.07;97597.31;4910407;28;20689;-77
2022/07/22 04:57:58;;;;;;;12.50;10.57;;;;;;;19.93;64.53;97603.41;4909701;28;20291;-77
2022/07/22 05:00:24;;;;;;;14.25;11.07;;;;;;;19.89;65.06;97602.41;4927688;28;20206;-77
2022/07/22 05:02:49;;;;;;;15.05;10.40;;;;;;;19.97;64.92;97593.03;4909543;28;20524;-77
2022/07/22 05:05:15;;;;;;;13.85;10.85;;;;;;;20.05;64.89;97602.91;4925456;28;20291;-77
2022/07/22 05:07:40;;;;;;;12.73;10.32;;;;;;;20.02;64.58;97587.63;4925286;28;20283;-77
2022/07/22 05:10:06;;;;;;;13.18;10.60;;;;;;;20.05;64.08;97594.19;4927357;28;20213;-77
2022/07/22 05:12:32;;;;;;;12.70;10.25;;;;;;;20.11;64.51;97593.78;4903160;28;20161;-77
2022/07/22 05:14:57;;;;;;;17.45;11.00;;;;;;;20.11;64.18;97593.00;4909380;28;20244;-77
2022/07/22 05:17:23;;;;;;;13.02;9.88;;;;;;;20.20;64.12;97593.88;4926349;28;20583;-77
2022/07/22 05:19:48;;;;;;;12.82;10.73;;;;;;;20.23;64.13;97590.63;4925317;28;20190;-77
2022/07/22 05:22:14;;;;;;;12.07;10.18;;;;;;;20.28;63.83;97585.25;4924871;28;20298;-77
2022/07/22 05:24:40;;;;;;;13.27;10.07;;;;;;;20.35;63.83;97588.25;4909437;28;20150;-77
2022/07/22 05:27:05;;;;;;;12.02;9.88;;;;;;;20.34;63.78;97593.84;4908504;28;20286;-77
2022/07/22 05:29:30;;;;;;;13.65;9.75;;;;;;;20.37;63.37;97590.59;4927079;28;20287;-77
2022/07/22 05:31:56;;;;;;;11.38;9.45;;;;;;;20.39;63.68;97580.50;4926704;28;20282;-77
2022/07/22 05:34:22;;;;;;;11.40;9.40;;;;;;;20.49;63.60;97584.78;4926087;28;20158;-77
2022/07/22 05:36:47;;;;;;;13.98;9.88;;;;;;;20.26;63.48;97582.13;4912705;28;20411;-77
2022/07/22 05:39:13;;;;;;;14.13;9.40;;;;;;;20.30;63.48;97592.88;4929528;28;20207;-77
2022/07/22 05:41:38;;;;;;;11.73;9.38;;;;;;;20.28;63.25;97590.53;4913417;28;20214;-77
2022/07/22 05:44:04;;;;;;;13.60;9.77;;;;;;;19.95;64.19;97590.69;4927779;28;20375;-77
2022/07/22 05:46:30;;;;;;;13.05;10.32;;;;;;;20.13;64.06;97588.19;4929175;28;20216;-77
2022/07/22 05:48:55;;;;;;;14.48;10.48;;;;;;;20.11;63.92;97590.38;4928531;28;20216;-76
2022/07/22 05:51:21;;;;;;;13.82;11.05;;;;;;;19.97;64.00;97588.50;4913665;28;20295;-77
2022/07/22 05:53:47;;;;;;;13.00;8.80;;;;;;;20.19;64.09;97589.69;4896768;28;20704;-76
2022/07/22 05:56:13;;;;;;;13.93;10.10;;;;;;;20.31;63.29;97591.81;4928488;28;20281;-77
2022/07/22 05:58:39;;;;;;;11.80;9.25;;;;;;;20.47;63.26;97587.75;4929354;28;20560;-78
2022/07/22 06:01:05;;;;;;;13.45;9.35;;;;;;;20.53;62.73;97585.78;4929302;28;20186;-76
2022/07/22 06:03:31;;;;;;;11.05;9.50;;;;;;;20.56;62.36;97591.25;4924026;28;20301;-77
2022/07/22 06:05:56;;;;;;;11.63;8.68;;;;;;;20.47;62.57;97592.25;4930312;28;20563;-76
2022/07/22 06:08:21;;;;;;;12.98;10.00;;;;;;;20.63;62.36;97582.13;4895687;28;20571;-77
2022/07/22 06:10:47;;;;;;;13.68;10.30;;;;;;;20.50;62.41;97583.72;4928179;28;20185;-77
2022/07/22 06:13:13;;;;;;;10.85;8.68;;;;;;;20.84;62.04;97595.69;4913115;28;20184;-77
2022/07/22 06:15:38;;;;;;;12.25;9.02;;;;;;;20.98;61.59;97585.81;4929825;28;20259;-76
2022/07/22 06:18:04;;;;;;;10.57;8.98;;;;;;;20.96;61.41;97588.00;4895704;28;20197;-77
2022/07/22 06:20:29;;;;;;;12.32;9.23;;;;;;;20.97;61.90;97594.06;4928277;28;20256;-77
2022/07/22 06:22:54;;;;;;;14.07;10.23;;;;;;;21.07;60.79;97586.63;4928887;28;20296;-76
2022/07/22 06:25:20;;;;;;;10.32;8.60;;;;;;;21.12;61.00;97591.81;4912033;28;20166;-77
2022/07/22 06:27:45;;;;;;;11.80;8.55;;;;;;;21.14;60.97;97594.94;4928327;28;20315;-76
2022/07/22 06:30:11;;;;;;;14.40;8.48;;;;;;;21.41;60.62;97590.56;4911987;28;20607;-77
2022/07/22 06:32:36;;;;;;;11.27;7.93;;;;;;;21.59;59.87;97593.31;4896482;28;20291;-77
2022/07/22 06:35:03;;;;;;;10.48;8.57;;;;;;;21.42;59.29;97592.13;4911628;28;20635;-77
2022/07/22 06:37:28;;;;;;;14.13;9.98;;;;;;;21.48;59.76;97588.28;4911709;28;20643;-76
2022/07/22 06:39:53;;;;;;;10.32;8.20;;;;;;;21.50;59.91;97591.41;4927664;28;20199;-77
2022/07/22 06:42:19;;;;;;;8.90;7.72;;;;;;;21.51;59.57;97585.03;4912341;28;20294;-77
2022/07/22 06:44:44;;;;;;;12.00;8.10;;;;;;;21.60;59.30;97590.34;4927375;28;20619;-77
2022/07/22 06:47:09;;;;;;;12.27;9.50;;;;;;;21.87;58.74;97586.72;4925711;28;20693;-76
2022/07/22 06:49:35;;;;;;;14.50;8.95;;;;;;;22.03;57.93;97584.41;4927891;28;20232;-77
2022/07/22 06:52:01;;;;;;;9.13;7.47;;;;;;;22.17;58.08;97581.63;4929595;28;20264;-77
2022/07/22 06:54:27;;;;;;;11.20;8.15;;;;;;;22.04;57.80;97575.38;4910203;28;20272;-76
2022/07/22 06:56:52;;;;;;;10.75;8.30;;;;;;;22.23;57.51;97576.97;4901312;28;20166;-76
2022/07/22 06:59:18;;;;;;;10.32;8.10;;;;;;;22.50;57.32;97575.13;4928434;28;20194;-78
2022/07/22 07:01:43;;;;;;;10.82;7.95;;;;;;;22.90;56.76;97570.41;4911723;28;20118;-78
2022/07/22 07:04:09;;;;;;;9.35;7.53;;;;;;;22.76;56.30;97572.47;4927220;28;20279;-78
2022/07/22 07:06:34;;;;;;;9.25;7.82;;;;;;;22.85;56.30;97567.91;4911597;28;20181;-78
2022/07/22 07:09:00;;;;;;;8.18;7.00;;;;;;;23.44;55.71;97567.34;4930648;28;20212;-78
2022/07/22 07:11:25;;;;;;;8.77;7.28;;;;;;;23.62;54.47;97561.94;4928649;28;20681;-77
2022/07/22 07:13:51;;;;;;;8.45;7.15;;;;;;;23.55;53.51;97562.44;4896803;28;20695;-77
2022/07/22 07:16:16;;;;;;;10.10;7.50;;;;;;;23.71;53.40;97560.78;4928319;28;20228;-78
2022/07/22 07:18:42;;;;;;;10.60;7.60;;;;;;;23.83;53.85;97560.13;4911662;28;20361;-78
2022/07/22 07:21:07;;;;;;;8.55;6.95;;;;;;;23.78;53.59;97554.97;4895815;28;20196;-77
2022/07/22 07:23:32;;;;;;;8.93;6.78;;;;;;;23.65;53.51;97571.94;4928228;28;20310;-77
2022/07/22 07:25:58;;;;;;;9.10;6.80;;;;;;;23.99;53.64;97560.38;4895777;28;20674;-78
2022/07/22 07:28:23;;;;;;;8.80;6.57;;;;;;;23.94;52.77;97552.56;4895747;28;20208;-77
2022/07/22 07:30:49;;;;;;;7.93;6.72;;;;;;;24.29;52.45;97552.31;4896378;28;20181;-78
2022/07/22 07:33:14;;;;;;;7.95;7.15;;;;;;;24.26;52.22;97558.28;4910862;28;20641;-77
2022/07/22 07:35:40;;;;;;;7.15;6.38;;;;;;;24.48;52.08;97549.97;4927412;28;20265;-78
2022/07/22 07:38:05;;;;;;;9.45;6.95;;;;;;;24.30;52.14;97548.56;4927490;28;20196;-78
2022/07/22 07:40:31;;;;;;;8.55;6.65;;;;;;;24.28;52.69;97546.22;4927051;28;20212;-76
2022/07/22 07:42:57;;;;;;;7.75;6.65;;;;;;;24.58;52.20;97553.38;4928121;28;20245;-78
2022/07/22 07:45:22;;;;;;;8.55;6.35;;;;;;;24.77;51.40;97539.56;4927673;28;20195;-77
2022/07/22 07:47:48;;;;;;;8.93;7.00;;;;;;;24.79;50.35;97538.13;4926883;28;20170;-78
2022/07/22 07:50:14;;;;;;;7.22;6.40;;;;;;;25.05;51.08;97542.41;4926770;28;20649;-78
2022/07/22 07:52:41;;;;;;;8.13;7.32;;;;;;;25.37;50.24;97538.16;4892645;28;20233;-78
2022/07/22 07:55:07;;;;;;;7.70;6.72;;;;;;;25.55;49.30;97537.91;4910259;28;20288;-77
2022/07/22 07:57:33;;;;;;;8.80;6.93;;;;;;;25.52;49.50;97535.94;4894779;28;20143;-80
2022/07/22 07:59:58;;;;;;;8.35;6.30;;;;;;;25.45;49.12;97533.84;4926767;28;20196;-78
2022/07/22 08:02:24;;;;;;;7.43;6.50;;;;;;;25.83;48.54;97530.03;4924113;28;20204;-77
2022/07/22 08:04:49;;;;;;;7.70;6.55;;;;;;;25.98;47.96;97532.03;4929355;28;20212;-78
2022/07/22 08:07:14;;;;;;;7.70;6.57;;;;;;;25.67;48.49;97539.81;4926648;28;20274;-77
2022/07/22 08:09:40;;;;;;;6.53;5.93;;;;;;;25.70;48.48;97537.25;4927020;28;20243;-79
2022/07/22 08:12:06;;;;;;;7.35;6.50;;;;;;;26.10;48.21;97538.47;4926542;28;20240;-79
2022/07/22 08:14:31;;;;;;;7.95;6.57;;;;;;;26.32;47.56;97539.81;4895052;28;20736;-78
2022/07/22 08:16:57;;;;;;;9.13;6.13;;;;;;;26.87;46.24;97532.16;4909619;28;20184;-77
2022/07/22 08:19:22;;;;;;;6.80;6.10;;;;;;;27.32;45.83;97530.25;4926814;28;20275;-77
2022/07/22 08:21:47;;;;;;;7.70;6.28;;;;;;;27.26;45.25;97532.38;4926494;28;20165;-77
2022/07/22 08:24:13;;;;;;;6.53;5.90;;;;;;;27.21;45.60;97532.63;4926627;28;20264;-77
2022/07/22 08:26:38;;;;;;;6.78;6.18;;;;;;;27.58;45.60;97527.03;4910271;28;20189;-77
2022/07/22 08:29:05;;;;;;;7.40;5.72;;;;;;;27.76;44.67;97528.22;4910561;28;20132;-77
2022/07/22 08:31:34;;;;;;;7.43;6.45;;;;;;;28.02;44.08;97522.28;4926530;28;20201;-77
2022/07/22 08:34:00;;;;;;;6.38;5.78;;;;;;;28.27;44.14;97523.91;4908331;28;20341;-77
2022/07/22 08:36:26;;;;;;;7.47;6.75;;;;;;;28.31;43.85;97519.41;4926630;28;20204;-78
2022/07/22 08:38:52;;;;;;;6.30;5.70;;;;;;;28.38;43.53;97519.56;4926600;28;20658;-77
2022/07/22 08:41:18;;;;;;;7.18;6.30;;;;;;;28.61;43.15;97516.94;4910189;28;20343;-77
2022/07/22 08:43:45;;;;;;;6.53;5.93;;;;;;;28.56;42.78;97530.63;4925316;28;20166;-76
2022/07/22 08:46:10;;;;;;;6.15;5.55;;;;;;;28.72;42.55;97523.28;4925426;28;20208;-77
2022/07/22 08:48:37;;;;;;;7.57;6.82;;;;;;;28.75;42.69;97517.22;4909482;28;20173;-77
2022/07/22 08:51:02;;;;;;;7.53;6.68;;;;;;;28.79;42.22;97516.47;4926484;28;20286;-77
2022/07/22 08:53:28;;;;;;;6.30;5.80;;;;;;;29.28;41.39;97515.78;4909527;28;20327;-76
2022/07/22 08:55:53;;;;;;;6.70;6.13;;;;;;;29.30;41.06;97525.03;4925380;28;20192;-77
2022/07/22 08:58:18;;;;;;;7.50;6.78;;;;;;;29.29;40.46;97504.72;4909025;28;20178;-77
2022/07/22 09:00:44;;;;;;;7.00;6.40;;;;;;;29.28;40.52;97500.47;4926133;28;20688;-77
2022/07/22 09:03:27;;;;;;;6.40;5.88;;;;;;;29.72;41.08;97512.63;4908883;28;20204;-77
2022/07/22 09:05:53;;;;;;;6.88;6.28;;;;;;;30.33;39.69;97510.72;4925351;28;20177;-76
2022/07/22 09:08:19;;;;;;;6.28;5.70;;;;;;;30.23;39.14;97503.31;4925441;28;20193;-77
2022/07/22 09:10:45;;;;;;;7.13;6.47;;;;;;;30.18;39.46;97504.41;4924866;28;20216;-77
2022/07/22 09:13:11;;;;;;;6.72;6.13;;;;;;;30.33;39.51;97502.66;4925466;28;20300;-77
2022/07/22 09:15:41;;;;;;;6.82;6.22;;;;;;;29.87;40.37;97510.94;4924684;28;20185;-76
2022/07/22 09:18:07;;;;;;;7.95;7.15;;;;;;;30.04;39.46;97504.22;4925353;28;20220;-76
2022/07/22 09:20:34;;;;;;;6.75;6.15;;;;;;;30.59;38.59;97501.81;4909051;28;20290;-77
2022/07/22 09:23:00;;;;;;;6.38;5.70;;;;;;;30.94;39.36;97503.28;4926319;28;20188;-76
2022/07/22 09:25:38;;;;;;;6.78;6.07;;;;;;;31.17;36.68;97507.69;4924706;28;20646;-77
2022/07/22 09:28:07;;;;;;;6.85;6.25;;;;;;;31.18;37.71;97506.56;4909422;28;20685;-77
2022/07/22 09:30:35;;;;;;;6.82;6.20;;;;;;;30.89;38.05;97513.59;4909597;28;20196;-77
2022/07/22 09:33:00;;;;;;;6.70;6.10;;;;;;;31.15;38.50;97508.09;4908006;28;20209;-77
2022/07/22 09:35:25;;;;;;;7.90;6.68;;;;;;;31.32;37.50;97509.34;4925031;28;20162;-77
2022/07/22 09:37:55;;;;;;;7.47;6.78;;;;;;;30.92;37.37;97510.19;4925829;28;20323;-77
2022/07/22 09:40:29;;;;;;;7.18;6.47;;;;;;;31.11;37.58;97496.53;4908856;28;20661;-77
2022/07/22 09:42:57;;;;;;;8.18;6.07;;;;;;;31.02;37.41;97504.16;4925191;28;20181;-77
2022/07/22 09:45:27;;;;;;;7.10;6.47;;;;;;;31.35;36.60;97499.78;4924848;28;20170;-77
2022/07/22 09:47:58;;;;;;;7.57;6.60;;;;;;;31.28;37.24;97499.72;4924566;28;20176;-77
2022/07/22 09:50:26;;;;;;;7.18;6.30;;;;;;;31.92;36.37;97492.03;4908919;28;20188;-77
2022/07/22 09:52:53;;;;;;;6.93;6.25;;;;;;;30.96;36.88;97501.00;4909627;28;20201;-77
2022/07/22 09:55:21;;;;;;;6.70;6.20;;;;;;;31.40;37.53;97485.22;4907044;28;20167;-77
2022/07/22 09:57:48;;;;;;;7.05;6.43;;;;;;;32.01;36.61;97485.53;4925090;28;20164;-76
2022/07/22 10:00:16;;;;;;;6.65;6.07;;;;;;;32.11;35.79;97479.44;4924631;28;20389;-77
2022/07/22 10:02:58;;;;;;;7.05;6.45;;;;;;;32.39;36.03;97470.69;4908706;28;20162;-77
2022/07/22 10:05:28;;;;;;;6.53;6.03;;;;;;;32.23;35.30;97460.22;4908177;28;20204;-77
2022/07/22 10:07:54;;;;;;;7.03;6.38;;;;;;;32.01;35.67;97466.69;4925195;28;20201;-77
2022/07/22 10:10:25;;;;;;;7.10;6.47;;;;;;;31.80;36.13;97465.44;4924875;28;20178;-77
2022/07/22 10:12:52;;;;;;;7.35;6.75;;;;;;;32.09;36.50;97465.59;4924745;28;20693;-77
2022/07/22 10:15:21;;;;;;;7.30;6.68;;;;;;;31.96;35.48;97462.44;4924554;28;20311;-77
2022/07/22 10:17:49;;;;;;;6.32;5.82;;;;;;;32.59;34.74;97454.91;4908373;28;20228;-76
2022/07/22 10:20:23;;;;;;;6.60;6.00;;;;;;;32.64;35.67;97449.16;4893637;28;20287;-76
2022/07/22 10:23:00;;;;;;;7.25;6.65;;;;;;;32.28;34.71;97442.94;4928588;28;20736;-77
2022/07/22 10:25:31;;;;;;;7.28;6.47;;;;;;;32.27;34.61;97436.00;4895959;28;20633;-77
2022/07/22 10:28:03;;;;;;;7.15;6.55;;;;;;;31.87;35.84;97448.53;4911886;28;20200;-76
2022/07/22 10:30:33;;;;;;;6.63;6.13;;;;;;;32.75;33.84;97441.09;4928327;28;20444;-77
2022/07/22 10:33:05;;;;;;;7.30;6.45;;;;;;;32.80;35.75;97437.22;4927389;28;20305;-77
2022/07/22 10:35:31;;;;;;;7.43;6.82;;;;;;;32.98;34.86;97438.00;4928970;28;20244;-77
2022/07/22 10:38:00;;;;;;;7.10;6.50;;;;;;;33.40;32.56;97435.66;4927989;28;20174;-77
2022/07/22 10:40:28;;;;;;;7.80;7.20;;;;;;;32.91;34.69;97431.84;4896473;28;20711;-78
2022/07/22 10:42:56;;;;;;;7.22;6.63;;;;;;;33.02;34.11;97421.81;4912680;28;20203;-77
2022/07/22 10:45:30;;;;;;;6.28;5.78;;;;;;;33.07;33.86;97428.75;4925534;28;20357;-76
2022/07/22 10:47:57;;;;;;;6.73;6.23;;;;;;;33.55;33.90;97425.56;4910552;28;20646;-76
2022/07/22 10:50:37;;;;;;;6.85;6.25;;;;;;;33.45;33.28;97424.47;4927811;28;20277;-77
2022/07/22 10:53:05;;;;;;;7.47;6.88;;;;;;;33.56;33.23;97419.03;4928019;28;20810;-76
2022/07/22 10:55:30;;;;;;;7.43;6.90;;;;;;;33.32;33.52;97418.69;4927158;28;20216;-76
2022/07/22 10:57:56;;;;;;;7.28;6.60;;;;;;;33.57;33.34;97417.84;4927653;28;20697;-77
2022/07/22 11:00:21;;;;;;;7.43;6.82;;;;;;;33.72;33.46;97413.19;4911519;28;20277;-77
2022/07/22 11:02:47;;;;;;;6.25;5.75;;;;;;;33.81;32.80;97410.06;4927173;28;20622;-76
2022/07/22 11:05:13;;;;;;;6.65;6.15;;;;;;;34.14;31.96;97414.91;4910909;28;20621;-76
2022/07/22 11:07:42;;;;;;;7.18;6.53;;;;;;;34.69;30.75;97412.63;4911146;28;20279;-76
2022/07/22 11:10:16;;;;;;;7.20;6.70;;;;;;;34.54;31.92;97397.69;4926909;28;20442;-76
2022/07/22 11:12:42;;;;;;;6.57;6.07;;;;;;;34.22;31.87;97409.50;4927550;28;20614;-77
2022/07/22 11:15:08;;;;;;;7.47;6.88;;;;;;;34.42;32.24;97398.94;4926896;28;20216;-77
2022/07/22 11:17:34;;;;;;;6.75;6.03;;;;;;;34.44;30.40;97394.66;4926365;28;20255;-76
2022/07/22 11:20:09;;;;;;;6.90;6.35;;;;;;;33.37;33.77;97394.00;4926903;28;20354;-76
2022/07/22 11:22:35;;;;;;;6.95;6.45;;;;;;;33.03;34.49;97396.38;4928039;28;20209;-76